sensor_id;sensor_type;location;lat;lon;timestamp;pressure;altitude;pressure_sealevel;temperature;humidity
43119;BME280;28729;49.838;8.650;2022-12-18T00:02:47;101090.06;;;-8.66;100.00
43119;BME280;28729;49.838;8.650;2022-12-18T00:06:49;101091.81;;;-8.65;100.00
43119;BME280;28729;49.838;8.650;2022-12-18T00:10:51;101077.28;;;-8.61;100.00
43119;BME280;28729;49.838;8.650;2022-12-18T00:14:53;101070.78;;;-8.57;100.00
43119;BME280;28729;49.838;8.650;2022-12-18T00:18:56;101067.75;;;-8.65;100.00
43119;BME280;28729;49.838;8.650;2022-12-18T00:22:57;101077.66;;;-8.67;100.00
43119;BME280;28729;49.838;8.650;2022-12-18T00:26:59;101085.97;;;-8.72;100.00
43119;BME280;28729;49.838;8.650;2022-12-18T00:31:03;101105.41;;;-8.84;100.00
43119;BME280;28729;49.838;8.650;2022-12-18T00:35:06;101111.06;;;-8.89;100.00
43119;BME280;28729;49.838;8.650;2022-12-18T00:39:10;101091.59;;;-8.91;100.00
43119;BME280;28729;49.838;8.650;2022-12-18T00:43:12;101106.75;;;-8.91;100.00
43119;BME280;28729;49.838;8.650;2022-12-18T00:47:13;101084.53;;;-8.92;100.00
43119;BME280;28729;49.838;8.650;2022-12-18T00:51:15;101080.72;;;-8.88;100.00
43119;BME280;28729;49.838;8.650;2022-12-18T00:55:17;101080.06;;;-8.91;100.00
43119;BME280;28729;49.838;8.650;2022-12-18T00:59:21;101078.69;;;-8.99;100.00
43119;BME280;28729;49.838;8.650;2022-12-18T01:03:27;101093.66;;;-8.96;100.00
43119;BME280;28729;49.838;8.650;2022-12-18T01:07:28;101089.19;;;-8.96;100.00
43119;BME280;28729;49.838;8.650;2022-12-18T01:11:30;101088.16;;;-8.93;100.00
43119;BME280;28729;49.838;8.650;2022-12-18T01:15:32;101079.47;;;-8.97;100.00
43119;BME280;28729;49.838;8.650;2022-12-18T01:19:34;101083.66;;;-8.92;100.00
43119;BME280;28729;49.838;8.650;2022-12-18T01:23:37;101077.19;;;-8.88;100.00
43119;BME280;28729;49.838;8.650;2022-12-18T01:27:40;101092.19;;;-8.86;100.00
43119;BME280;28729;49.838;8.650;2022-12-18T01:31:42;101096.06;;;-8.91;100.00
43119;BME280;28729;49.838;8.650;2022-12-18T01:35:44;101088.81;;;-8.89;100.00
43119;BME280;28729;49.838;8.650;2022-12-18T01:39:45;101106.47;;;-8.87;100.00
43119;BME280;28729;49.838;8.650;2022-12-18T01:43:53;101107.31;;;-8.86;100.00
43119;BME280;28729;49.838;8.650;2022-12-18T01:48:02;101115.00;;;-8.80;100.00
43119;BME280;28729;49.838;8.650;2022-12-18T01:52:04;101114.28;;;-8.84;100.00
43119;BME280;28729;49.838;8.650;2022-12-18T01:56:06;101112.66;;;-8.86;100.00
43119;BME280;28729;49.838;8.650;2022-12-18T02:00:14;101115.34;;;-8.86;100.00
43119;BME280;28729;49.838;8.650;2022-12-18T02:04:24;101100.84;;;-8.82;100.00
43119;BME280;28729;49.838;8.650;2022-12-18T02:08:45;101101.72;;;-8.82;100.00
43119;BME280;28729;49.838;8.650;2022-12-18T02:13:14;101095.59;;;-8.84;100.00
43119;BME280;28729;49.838;8.650;2022-12-18T02:17:21;101108.56;;;-8.92;100.00
43119;BME280;28729;49.838;8.650;2022-12-18T02:21:38;101101.09;;;-9.01;100.00
43119;BME280;28729;49.838;8.650;2022-12-18T02:26:04;101102.84;;;-9.00;100.00
43119;BME280;28729;49.838;8.650;2022-12-18T02:30:09;101089.38;;;-8.99;100.00
43119;BME280;28729;49.838;8.650;2022-12-18T02:34:12;101073.28;;;-8.97;100.00
43119;BME280;28729;49.838;8.650;2022-12-18T02:38:16;101073.16;;;-8.96;100.00
43119;BME280;28729;49.838;8.650;2022-12-18T02:42:22;101059.13;;;-8.99;100.00
43119;BME280;28729;49.838;8.650;2022-12-18T02:46:35;101053.78;;;-8.99;100.00
43119;BME280;28729;49.838;8.650;2022-12-18T02:51:17;101046.94;;;-8.89;100.00
43119;BME280;28729;49.838;8.650;2022-12-18T02:55:55;101061.06;;;-8.58;100.00
43119;BME280;28729;49.838;8.650;2022-12-18T03:00:12;101062.78;;;-8.30;100.00
43119;BME280;28729;49.838;8.650;2022-12-18T03:04:22;101065.91;;;-8.09;100.00
43119;BME280;28729;49.838;8.650;2022-12-18T03:08:29;101065.66;;;-7.92;100.00
43119;BME280;28729;49.838;8.650;2022-12-18T03:12:41;101086.94;;;-7.76;100.00
43119;BME280;28729;49.838;8.650;2022-12-18T03:16:45;101079.16;;;-7.66;100.00
43119;BME280;28729;49.838;8.650;2022-12-18T03:20:49;101098.50;;;-7.75;100.00
43119;BME280;28729;49.838;8.650;2022-12-18T03:24:56;101098.34;;;-7.87;100.00
43119;BME280;28729;49.838;8.650;2022-12-18T03:29:07;101094.88;;;-7.89;100.00
43119;BME280;28729;49.838;8.650;2022-12-18T03:33:18;101099.31;;;-7.88;100.00
43119;BME280;28729;49.838;8.650;2022-12-18T03:37:25;101083.25;;;-7.88;100.00
43119;BME280;28729;49.838;8.650;2022-12-18T03:41:29;101079.25;;;-7.95;100.00
43119;BME280;28729;49.838;8.650;2022-12-18T03:46:03;101077.81;;;-8.00;100.00
43119;BME280;28729;49.838;8.650;2022-12-18T03:50:11;101066.59;;;-8.06;100.00
43119;BME280;28729;49.838;8.650;2022-12-18T03:54:20;101064.09;;;-8.09;100.00
43119;BME280;28729;49.838;8.650;2022-12-18T03:58:31;101056.38;;;-8.13;100.00
43119;BME280;28729;49.838;8.650;2022-12-18T04:02:55;101047.13;;;-8.22;100.00
43119;BME280;28729;49.838;8.650;2022-12-18T04:07:06;101053.53;;;-8.25;100.00
43119;BME280;28729;49.838;8.650;2022-12-18T04:11:11;101055.25;;;-8.23;100.00
43119;BME280;28729;49.838;8.650;2022-12-18T04:15:13;101058.34;;;-8.30;100.00
43119;BME280;28729;49.838;8.650;2022-12-18T04:19:17;101058.25;;;-8.42;100.00
43119;BME280;28729;49.838;8.650;2022-12-18T04:23:22;101067.53;;;-8.48;100.00
43119;BME280;28729;49.838;8.650;2022-12-18T04:27:24;101071.75;;;-8.58;100.00
43119;BME280;28729;49.838;8.650;2022-12-18T04:31:27;101066.69;;;-8.63;100.00
43119;BME280;28729;49.838;8.650;2022-12-18T04:35:29;101055.34;;;-8.66;100.00
43119;BME280;28729;49.838;8.650;2022-12-18T04:39:31;101063.16;;;-8.63;100.00
43119;BME280;28729;49.838;8.650;2022-12-18T04:43:39;101047.31;;;-8.66;100.00
43119;BME280;28729;49.838;8.650;2022-12-18T04:47:41;101044.84;;;-8.69;100.00
43119;BME280;28729;49.838;8.650;2022-12-18T04:51:43;101044.06;;;-8.72;100.00
43119;BME280;28729;49.838;8.650;2022-12-18T04:55:44;101041.50;;;-8.73;100.00
43119;BME280;28729;49.838;8.650;2022-12-18T04:59:46;101050.56;;;-8.76;100.00
43119;BME280;28729;49.838;8.650;2022-12-18T05:03:47;101063.34;;;-8.81;100.00
43119;BME280;28729;49.838;8.650;2022-12-18T05:07:49;101076.16;;;-8.86;100.00
43119;BME280;28729;49.838;8.650;2022-12-18T05:11:51;101079.09;;;-8.90;100.00
43119;BME280;28729;49.838;8.650;2022-12-18T05:15:53;101081.09;;;-8.94;100.00
43119;BME280;28729;49.838;8.650;2022-12-18T05:19:55;101097.69;;;-9.03;100.00
43119;BME280;28729;49.838;8.650;2022-12-18T05:23:57;101093.38;;;-9.06;100.00
43119;BME280;28729;49.838;8.650;2022-12-18T05:27:58;101095.38;;;-9.09;100.00
43119;BME280;28729;49.838;8.650;2022-12-18T05:32:01;101103.94;;;-9.19;100.00
43119;BME280;28729;49.838;8.650;2022-12-18T05:36:05;101096.50;;;-9.28;100.00
43119;BME280;28729;49.838;8.650;2022-12-18T05:40:08;101099.69;;;-9.37;100.00
43119;BME280;28729;49.838;8.650;2022-12-18T05:44:10;101097.38;;;-9.43;100.00
43119;BME280;28729;49.838;8.650;2022-12-18T05:48:12;101085.94;;;-9.45;100.00
43119;BME280;28729;49.838;8.650;2022-12-18T05:52:15;101081.47;;;-9.45;100.00
43119;BME280;28729;49.838;8.650;2022-12-18T05:56:19;101072.78;;;-9.48;100.00
43119;BME280;28729;49.838;8.650;2022-12-18T06:00:20;101064.59;;;-9.45;100.00
43119;BME280;28729;49.838;8.650;2022-12-18T06:04:22;101063.63;;;-9.44;100.00
43119;BME280;28729;49.838;8.650;2022-12-18T06:08:24;101073.28;;;-9.42;100.00
43119;BME280;28729;49.838;8.650;2022-12-18T06:12:26;101072.97;;;-9.37;100.00
43119;BME280;28729;49.838;8.650;2022-12-18T06:16:28;101082.06;;;-9.39;100.00
43119;BME280;28729;49.838;8.650;2022-12-18T06:20:31;101085.47;;;-9.37;100.00
43119;BME280;28729;49.838;8.650;2022-12-18T06:24:34;101094.06;;;-9.32;100.00
43119;BME280;28729;49.838;8.650;2022-12-18T06:28:35;101110.16;;;-9.34;100.00
43119;BME280;28729;49.838;8.650;2022-12-18T06:32:37;101120.16;;;-9.37;100.00
43119;BME280;28729;49.838;8.650;2022-12-18T06:36:39;101129.16;;;-9.38;100.00
43119;BME280;28729;49.838;8.650;2022-12-18T06:40:40;101137.31;;;-9.42;100.00
43119;BME280;28729;49.838;8.650;2022-12-18T06:44:42;101147.03;;;-9.41;100.00
43119;BME280;28729;49.838;8.650;2022-12-18T06:48:47;101146.19;;;-9.41;100.00
43119;BME280;28729;49.838;8.650;2022-12-18T06:52:49;101143.63;;;-9.43;100.00
43119;BME280;28729;49.838;8.650;2022-12-18T06:56:51;101141.81;;;-9.42;100.00
43119;BME280;28729;49.838;8.650;2022-12-18T07:00:53;101151.72;;;-9.44;100.00
43119;BME280;28729;49.838;8.650;2022-12-18T07:04:56;101155.16;;;-9.42;100.00
43119;BME280;28729;49.838;8.650;2022-12-18T07:08:58;101145.59;;;-9.46;100.00
43119;BME280;28729;49.838;8.650;2022-12-18T07:12:59;101154.47;;;-9.46;100.00
43119;BME280;28729;49.838;8.650;2022-12-18T07:17:01;101167.66;;;-9.43;100.00
43119;BME280;28729;49.838;8.650;2022-12-18T07:21:07;101176.94;;;-9.50;100.00
43119;BME280;28729;49.838;8.650;2022-12-18T07:25:09;101174.56;;;-9.54;100.00
43119;BME280;28729;49.838;8.650;2022-12-18T07:29:10;101171.16;;;-9.58;100.00
43119;BME280;28729;49.838;8.650;2022-12-18T07:33:12;101157.41;;;-9.50;100.00
43119;BME280;28729;49.838;8.650;2022-12-18T07:37:14;101165.41;;;-9.50;100.00
43119;BME280;28729;49.838;8.650;2022-12-18T07:41:16;101161.38;;;-9.57;100.00
43119;BME280;28729;49.838;8.650;2022-12-18T07:45:17;101155.44;;;-9.63;100.00
43119;BME280;28729;49.838;8.650;2022-12-18T07:49:19;101153.81;;;-9.65;100.00
43119;BME280;28729;49.838;8.650;2022-12-18T07:53:21;101160.16;;;-9.68;100.00
43119;BME280;28729;49.838;8.650;2022-12-18T07:57:22;101157.16;;;-9.61;100.00
43119;BME280;28729;49.838;8.650;2022-12-18T08:01:44;101168.44;;;-9.56;100.00
43119;BME280;28729;49.838;8.650;2022-12-18T08:05:47;101173.25;;;-9.47;100.00
43119;BME280;28729;49.838;8.650;2022-12-18T08:09:51;101177.19;;;-9.38;100.00
43119;BME280;28729;49.838;8.650;2022-12-18T08:13:54;101177.38;;;-9.42;100.00
43119;BME280;28729;49.838;8.650;2022-12-18T08:17:56;101181.50;;;-9.36;100.00
43119;BME280;28729;49.838;8.650;2022-12-18T08:21:58;101182.41;;;-9.37;100.00
43119;BME280;28729;49.838;8.650;2022-12-18T08:25:59;101178.53;;;-9.31;100.00
43119;BME280;28729;49.838;8.650;2022-12-18T08:30:02;101177.94;;;-9.21;100.00
43119;BME280;28729;49.838;8.650;2022-12-18T08:34:04;101176.41;;;-9.10;100.00
43119;BME280;28729;49.838;8.650;2022-12-18T08:38:06;101175.88;;;-9.01;100.00
43119;BME280;28729;49.838;8.650;2022-12-18T08:42:09;101180.28;;;-9.00;100.00
43119;BME280;28729;49.838;8.650;2022-12-18T08:46:35;101175.34;;;-8.92;100.00
43119;BME280;28729;49.838;8.650;2022-12-18T08:50:37;101157.03;;;-8.84;100.00
43119;BME280;28729;49.838;8.650;2022-12-18T08:54:39;101155.72;;;-8.77;100.00
43119;BME280;28729;49.838;8.650;2022-12-18T08:58:42;101142.09;;;-8.58;100.00
43119;BME280;28729;49.838;8.650;2022-12-18T09:02:46;101159.78;;;-8.41;100.00
43119;BME280;28729;49.838;8.650;2022-12-18T09:06:55;101145.28;;;-8.24;100.00
43119;BME280;28729;49.838;8.650;2022-12-18T09:10:57;101134.50;;;-8.08;100.00
43119;BME280;28729;49.838;8.650;2022-12-18T09:14:59;101127.13;;;-7.90;100.00
43119;BME280;28729;49.838;8.650;2022-12-18T09:19:02;101140.47;;;-7.76;100.00
43119;BME280;28729;49.838;8.650;2022-12-18T09:23:05;101155.59;;;-7.62;100.00
43119;BME280;28729;49.838;8.650;2022-12-18T09:27:07;101156.41;;;-7.47;100.00
43119;BME280;28729;49.838;8.650;2022-12-18T09:31:11;101152.44;;;-7.27;100.00
43119;BME280;28729;49.838;8.650;2022-12-18T09:35:16;101165.56;;;-7.10;100.00
43119;BME280;28729;49.838;8.650;2022-12-18T09:39:18;101161.97;;;-6.83;100.00
43119;BME280;28729;49.838;8.650;2022-12-18T09:47:35;101154.66;;;-6.05;100.00
43119;BME280;28729;49.838;8.650;2022-12-18T09:52:02;101149.69;;;-5.61;100.00
43119;BME280;28729;49.838;8.650;2022-12-18T09:56:05;101162.09;;;-5.23;100.00
43119;BME280;28729;49.838;8.650;2022-12-18T10:00:18;101162.84;;;-4.86;100.00
43119;BME280;28729;49.838;8.650;2022-12-18T10:04:21;101158.41;;;-4.63;100.00
43119;BME280;28729;49.838;8.650;2022-12-18T10:26:12;101154.50;;;-3.69;100.00
43119;BME280;28729;49.838;8.650;2022-12-18T10:30:21;101156.94;;;-3.55;99.31
43119;BME280;28729;49.838;8.650;2022-12-18T10:34:23;101132.63;;;-3.32;98.22
43119;BME280;28729;49.838;8.650;2022-12-18T10:38:30;101120.28;;;-3.14;95.96
43119;BME280;28729;49.838;8.650;2022-12-18T10:42:33;101132.66;;;-3.11;95.02
43119;BME280;28729;49.838;8.650;2022-12-18T10:46:35;101134.31;;;-2.99;94.72
43119;BME280;28729;49.838;8.650;2022-12-18T10:50:37;101138.94;;;-2.90;93.58
43119;BME280;28729;49.838;8.650;2022-12-18T10:55:02;101139.16;;;-2.82;93.03
43119;BME280;28729;49.838;8.650;2022-12-18T10:59:09;101144.06;;;-2.87;91.46
43119;BME280;28729;49.838;8.650;2022-12-18T11:03:38;101129.00;;;-2.68;92.81
43119;BME280;28729;49.838;8.650;2022-12-18T11:07:48;101135.06;;;-2.76;90.02
43119;BME280;28729;49.838;8.650;2022-12-18T11:11:53;101146.91;;;-2.67;91.20
43119;BME280;28729;49.838;8.650;2022-12-18T11:15:56;101140.72;;;-2.58;92.04
43119;BME280;28729;49.838;8.650;2022-12-18T11:20:00;101129.00;;;-2.47;92.13
43119;BME280;28729;49.838;8.650;2022-12-18T11:24:02;101127.75;;;-2.43;89.56
43119;BME280;28729;49.838;8.650;2022-12-18T11:28:25;101126.53;;;-2.30;90.38
43119;BME280;28729;49.838;8.650;2022-12-18T11:32:33;101131.56;;;-2.15;90.44
43119;BME280;28729;49.838;8.650;2022-12-18T11:36:43;101131.94;;;-1.99;90.24
43119;BME280;28729;49.838;8.650;2022-12-18T11:40:53;101139.78;;;-1.96;90.20
43119;BME280;28729;49.838;8.650;2022-12-18T11:45:02;101128.72;;;-1.83;91.03
43119;BME280;28729;49.838;8.650;2022-12-18T11:49:33;101118.78;;;-1.73;91.13
43119;BME280;28729;49.838;8.650;2022-12-18T11:53:38;101128.97;;;-1.46;89.71
43119;BME280;28729;49.838;8.650;2022-12-18T11:57:51;101115.31;;;-1.15;89.86
43119;BME280;28729;49.838;8.650;2022-12-18T12:02:17;101114.03;;;-1.11;85.65
43119;BME280;28729;49.838;8.650;2022-12-18T12:15:10;101120.16;;;-0.80;84.36
43119;BME280;28729;49.838;8.650;2022-12-18T12:19:32;101114.88;;;-0.81;84.83
43119;BME280;28729;49.838;8.650;2022-12-18T12:28:03;101118.44;;;-0.90;83.78
43119;BME280;28729;49.838;8.650;2022-12-18T12:36:23;101104.06;;;-0.91;82.86
43119;BME280;28729;49.838;8.650;2022-12-18T12:40:35;101095.22;;;-0.83;83.49
43119;BME280;28729;49.838;8.650;2022-12-18T12:44:58;101101.63;;;-0.75;83.28
43119;BME280;28729;49.838;8.650;2022-12-18T12:49:03;101086.97;;;-0.82;81.78
43119;BME280;28729;49.838;8.650;2022-12-18T12:53:07;101091.69;;;-1.03;81.82
43119;BME280;28729;49.838;8.650;2022-12-18T12:57:29;101096.97;;;-1.21;81.96
43119;BME280;28729;49.838;8.650;2022-12-18T13:14:37;101093.19;;;-1.78;84.05
43119;BME280;28729;49.838;8.650;2022-12-18T13:18:48;101086.16;;;-2.00;84.59
43119;BME280;28729;49.838;8.650;2022-12-18T13:22:50;101045.59;;;-2.10;85.48
43119;BME280;28729;49.838;8.650;2022-12-18T13:26:53;101042.47;;;-2.06;85.83
43119;BME280;28729;49.838;8.650;2022-12-18T13:30:56;101038.22;;;-2.08;86.52
43119;BME280;28729;49.838;8.650;2022-12-18T13:39:33;101022.78;;;-1.87;86.54
43119;BME280;28729;49.838;8.650;2022-12-18T13:47:49;101023.06;;;-1.80;86.61
43119;BME280;28729;49.838;8.650;2022-12-18T13:51:54;101018.94;;;-1.74;86.62
43119;BME280;28729;49.838;8.650;2022-12-18T13:55:57;101010.00;;;-1.75;86.78
43119;BME280;28729;49.838;8.650;2022-12-18T14:00:17;101007.97;;;-1.83;86.30
43119;BME280;28729;49.838;8.650;2022-12-18T14:04:29;101016.38;;;-1.86;87.46
43119;BME280;28729;49.838;8.650;2022-12-18T14:08:41;101010.25;;;-1.88;87.67
43119;BME280;28729;49.838;8.650;2022-12-18T14:12:47;101005.84;;;-1.89;87.91
43119;BME280;28729;49.838;8.650;2022-12-18T14:17:09;100999.03;;;-1.93;87.90
43119;BME280;28729;49.838;8.650;2022-12-18T14:21:22;100996.72;;;-1.97;87.98
43119;BME280;28729;49.838;8.650;2022-12-18T14:25:25;100992.72;;;-2.03;88.68
43119;BME280;28729;49.838;8.650;2022-12-18T14:29:29;100999.25;;;-2.06;88.82
43119;BME280;28729;49.838;8.650;2022-12-18T14:33:31;101015.75;;;-2.09;88.97
43119;BME280;28729;49.838;8.650;2022-12-18T14:37:32;101000.28;;;-2.07;89.05
43119;BME280;28729;49.838;8.650;2022-12-18T14:41:34;101003.81;;;-2.16;89.59
43119;BME280;28729;49.838;8.650;2022-12-18T14:45:37;100997.84;;;-2.19;89.77
43119;BME280;28729;49.838;8.650;2022-12-18T14:49:44;101011.72;;;-2.24;90.50
43119;BME280;28729;49.838;8.650;2022-12-18T14:53:48;101005.75;;;-2.27;90.69
43119;BME280;28729;49.838;8.650;2022-12-18T14:57:56;101007.72;;;-2.30;91.07
43119;BME280;28729;49.838;8.650;2022-12-18T15:06:26;100991.50;;;-2.39;91.92
43119;BME280;28729;49.838;8.650;2022-12-18T15:10:32;101000.03;;;-2.44;92.17
43119;BME280;28729;49.838;8.650;2022-12-18T15:14:35;100993.47;;;-2.51;92.53
43119;BME280;28729;49.838;8.650;2022-12-18T15:18:41;100996.69;;;-2.57;92.53
43119;BME280;28729;49.838;8.650;2022-12-18T15:22:47;100992.84;;;-2.64;93.08
43119;BME280;28729;49.838;8.650;2022-12-18T15:26:48;100987.81;;;-2.79;93.14
43119;BME280;28729;49.838;8.650;2022-12-18T15:39:13;101010.34;;;-3.31;94.59
43119;BME280;28729;49.838;8.650;2022-12-18T15:43:14;101007.94;;;-3.46;95.54
43119;BME280;28729;49.838;8.650;2022-12-18T15:47:35;100997.84;;;-3.53;96.72
43119;BME280;28729;49.838;8.650;2022-12-18T15:51:37;100989.03;;;-3.55;96.92
43119;BME280;28729;49.838;8.650;2022-12-18T15:55:39;100988.03;;;-3.54;97.06
43119;BME280;28729;49.838;8.650;2022-12-18T16:00:01;100989.50;;;-3.50;97.14
43119;BME280;28729;49.838;8.650;2022-12-18T16:04:05;100983.59;;;-3.44;96.78
43119;BME280;28729;49.838;8.650;2022-12-18T16:08:06;100981.84;;;-3.45;97.05
43119;BME280;28729;49.838;8.650;2022-12-18T16:12:18;100978.94;;;-3.42;96.94
43119;BME280;28729;49.838;8.650;2022-12-18T16:16:20;100980.47;;;-3.39;97.16
43119;BME280;28729;49.838;8.650;2022-12-18T16:20:23;100973.97;;;-3.37;97.26
43119;BME280;28729;49.838;8.650;2022-12-18T16:24:27;100982.66;;;-3.33;97.45
43119;BME280;28729;49.838;8.650;2022-12-18T16:28:29;100982.00;;;-3.26;97.78
43119;BME280;28729;49.838;8.650;2022-12-18T16:32:31;100978.03;;;-3.22;97.53
43119;BME280;28729;49.838;8.650;2022-12-18T16:36:34;100969.97;;;-3.22;98.38
43119;BME280;28729;49.838;8.650;2022-12-18T16:40:37;100972.53;;;-3.20;98.50
43119;BME280;28729;49.838;8.650;2022-12-18T16:44:59;100962.34;;;-3.16;98.84
43119;BME280;28729;49.838;8.650;2022-12-18T16:49:01;100957.41;;;-3.11;98.49
43119;BME280;28729;49.838;8.650;2022-12-18T16:53:02;100960.69;;;-3.08;99.04
43119;BME280;28729;49.838;8.650;2022-12-18T16:57:04;100953.06;;;-3.03;99.13
43119;BME280;28729;49.838;8.650;2022-12-18T17:01:09;100963.44;;;-2.98;98.72
43119;BME280;28729;49.838;8.650;2022-12-18T17:05:11;100960.59;;;-2.96;98.68
43119;BME280;28729;49.838;8.650;2022-12-18T17:09:14;100950.41;;;-2.93;98.74
43119;BME280;28729;49.838;8.650;2022-12-18T17:13:16;100953.69;;;-2.89;98.77
43119;BME280;28729;49.838;8.650;2022-12-18T17:17:25;100957.56;;;-2.82;98.82
43119;BME280;28729;49.838;8.650;2022-12-18T17:21:27;100952.75;;;-2.79;98.74
43119;BME280;28729;49.838;8.650;2022-12-18T17:25:29;100955.28;;;-2.77;98.97
43119;BME280;28729;49.838;8.650;2022-12-18T17:29:31;100951.00;;;-2.80;98.92
43119;BME280;28729;49.838;8.650;2022-12-18T17:33:32;100950.78;;;-2.77;99.49
43119;BME280;28729;49.838;8.650;2022-12-18T17:37:34;100941.69;;;-2.76;99.61
43119;BME280;28729;49.838;8.650;2022-12-18T17:41:37;100932.75;;;-2.66;99.64
43119;BME280;28729;49.838;8.650;2022-12-18T17:45:39;100931.22;;;-2.59;99.44
43119;BME280;28729;49.838;8.650;2022-12-18T17:49:41;100924.84;;;-2.58;99.76
43119;BME280;28729;49.838;8.650;2022-12-18T17:53:43;100925.41;;;-2.55;99.44
43119;BME280;28729;49.838;8.650;2022-12-18T17:57:45;100933.63;;;-2.56;99.66
43119;BME280;28729;49.838;8.650;2022-12-18T18:01:47;100942.47;;;-2.54;99.38
43119;BME280;28729;49.838;8.650;2022-12-18T18:05:57;100944.59;;;-2.58;99.60
43119;BME280;28729;49.838;8.650;2022-12-18T18:09:59;100927.00;;;-2.52;99.86
43119;BME280;28729;49.838;8.650;2022-12-18T18:14:01;100926.56;;;-2.47;99.77
43119;BME280;28729;49.838;8.650;2022-12-18T18:18:02;100924.19;;;-2.41;99.50
43119;BME280;28729;49.838;8.650;2022-12-18T18:26:25;100921.59;;;-2.42;99.27
43119;BME280;28729;49.838;8.650;2022-12-18T18:30:30;100921.47;;;-2.41;99.55
43119;BME280;28729;49.838;8.650;2022-12-18T18:34:32;100925.72;;;-2.38;99.29
43119;BME280;28729;49.838;8.650;2022-12-18T18:38:33;100931.56;;;-2.33;99.29
43119;BME280;28729;49.838;8.650;2022-12-18T18:42:35;100925.59;;;-2.27;99.44
43119;BME280;28729;49.838;8.650;2022-12-18T18:46:37;100925.34;;;-2.24;99.33
43119;BME280;28729;49.838;8.650;2022-12-18T18:50:38;100929.88;;;-2.24;99.27
43119;BME280;28729;49.838;8.650;2022-12-18T18:54:40;100923.19;;;-2.20;99.46
43119;BME280;28729;49.838;8.650;2022-12-18T18:59:02;100922.50;;;-2.13;99.47
43119;BME280;28729;49.838;8.650;2022-12-18T19:03:04;100900.78;;;-2.11;99.51
43119;BME280;28729;49.838;8.650;2022-12-18T19:07:06;100895.94;;;-2.08;99.15
43119;BME280;28729;49.838;8.650;2022-12-18T19:11:08;100893.25;;;-2.08;99.10
43119;BME280;28729;49.838;8.650;2022-12-18T19:15:36;100894.09;;;-2.07;99.43
43119;BME280;28729;49.838;8.650;2022-12-18T19:19:38;100882.28;;;-2.06;99.19
43119;BME280;28729;49.838;8.650;2022-12-18T19:23:40;100880.88;;;-2.10;99.08
43119;BME280;28729;49.838;8.650;2022-12-18T19:27:42;100878.44;;;-2.13;98.81
43119;BME280;28729;49.838;8.650;2022-12-18T19:31:44;100876.19;;;-2.08;99.10
43119;BME280;28729;49.838;8.650;2022-12-18T19:35:47;100853.88;;;-2.10;99.08
43119;BME280;28729;49.838;8.650;2022-12-18T19:39:49;100854.88;;;-2.11;99.61
43119;BME280;28729;49.838;8.650;2022-12-18T19:43:51;100867.09;;;-2.07;99.09
43119;BME280;28729;49.838;8.650;2022-12-18T19:47:53;100859.38;;;-2.12;98.91
43119;BME280;28729;49.838;8.650;2022-12-18T19:52:03;100863.09;;;-2.13;99.22
43119;BME280;28729;49.838;8.650;2022-12-18T19:56:09;100858.84;;;-2.15;99.43
43119;BME280;28729;49.838;8.650;2022-12-18T20:00:12;100848.59;;;-2.12;99.79
43119;BME280;28729;49.838;8.650;2022-12-18T20:04:19;100841.06;;;-2.08;99.83
43119;BME280;28729;49.838;8.650;2022-12-18T20:08:21;100848.91;;;-2.05;99.41
43119;BME280;28729;49.838;8.650;2022-12-18T20:12:23;100850.44;;;-2.12;99.15
43119;BME280;28729;49.838;8.650;2022-12-18T20:16:25;100834.25;;;-2.22;99.38
43119;BME280;28729;49.838;8.650;2022-12-18T20:20:27;100858.13;;;-2.27;99.42
43119;BME280;28729;49.838;8.650;2022-12-18T20:24:29;100848.03;;;-2.35;99.82
43119;BME280;28729;49.838;8.650;2022-12-18T20:28:30;100838.09;;;-2.44;100.00
43119;BME280;28729;49.838;8.650;2022-12-18T20:32:32;100849.56;;;-2.52;99.93
43119;BME280;28729;49.838;8.650;2022-12-18T20:36:37;100851.53;;;-2.63;100.00
43119;BME280;28729;49.838;8.650;2022-12-18T20:40:41;100858.34;;;-2.69;100.00
43119;BME280;28729;49.838;8.650;2022-12-18T20:44:43;100866.44;;;-2.69;100.00
43119;BME280;28729;49.838;8.650;2022-12-18T20:48:46;100869.31;;;-2.61;100.00
43119;BME280;28729;49.838;8.650;2022-12-18T20:52:48;100856.94;;;-2.54;100.00
43119;BME280;28729;49.838;8.650;2022-12-18T20:56:50;100853.00;;;-2.49;100.00
43119;BME280;28729;49.838;8.650;2022-12-18T21:01:06;100848.00;;;-2.44;100.00
43119;BME280;28729;49.838;8.650;2022-12-18T21:05:08;100823.03;;;-2.37;100.00
43119;BME280;28729;49.838;8.650;2022-12-18T21:09:10;100824.16;;;-2.30;100.00
43119;BME280;28729;49.838;8.650;2022-12-18T21:13:12;100824.59;;;-2.24;100.00
43119;BME280;28729;49.838;8.650;2022-12-18T21:17:14;100842.91;;;-2.28;100.00
43119;BME280;28729;49.838;8.650;2022-12-18T21:21:16;100853.84;;;-2.30;100.00
43119;BME280;28729;49.838;8.650;2022-12-18T21:25:28;100870.31;;;-2.33;100.00
43119;BME280;28729;49.838;8.650;2022-12-18T21:29:30;100875.88;;;-2.34;100.00
43119;BME280;28729;49.838;8.650;2022-12-18T21:33:31;100865.25;;;-2.26;100.00
43119;BME280;28729;49.838;8.650;2022-12-18T21:37:33;100854.16;;;-2.13;100.00
43119;BME280;28729;49.838;8.650;2022-12-18T21:41:35;100845.31;;;-2.06;100.00
43119;BME280;28729;49.838;8.650;2022-12-18T21:45:56;100839.22;;;-2.08;100.00
43119;BME280;28729;49.838;8.650;2022-12-18T21:50:00;100835.25;;;-2.13;100.00
43119;BME280;28729;49.838;8.650;2022-12-18T21:54:02;100843.47;;;-2.15;100.00
43119;BME280;28729;49.838;8.650;2022-12-18T21:58:04;100852.03;;;-2.19;100.00
43119;BME280;28729;49.838;8.650;2022-12-18T22:02:17;100849.31;;;-2.19;100.00
43119;BME280;28729;49.838;8.650;2022-12-18T22:06:20;100860.25;;;-2.21;100.00
43119;BME280;28729;49.838;8.650;2022-12-18T22:10:22;100871.19;;;-2.22;100.00
43119;BME280;28729;49.838;8.650;2022-12-18T22:14:24;100873.91;;;-2.22;100.00
43119;BME280;28729;49.838;8.650;2022-12-18T22:18:26;100858.69;;;-2.23;100.00
43119;BME280;28729;49.838;8.650;2022-12-18T22:22:27;100854.00;;;-2.21;100.00
43119;BME280;28729;49.838;8.650;2022-12-18T22:26:32;100853.44;;;-2.15;100.00
43119;BME280;28729;49.838;8.650;2022-12-18T22:30:40;100857.56;;;-2.11;100.00
43119;BME280;28729;49.838;8.650;2022-12-18T22:34:42;100856.56;;;-2.10;100.00